sensor_id;sensor_type;location;lat;lon;timestamp;temperature;humidity
55219;DHT22;65463;43.864;20.136;2024-02-23T09:08:54;332.80;2329.60
55219;DHT22;65463;43.864;20.136;2024-02-23T09:11:20;333.00;2329.60
55219;DHT22;65463;43.864;20.136;2024-02-23T11:30:06;461.30;1408.00
55219;DHT22;65463;43.864;20.136;2024-02-23T14:05:06;435.20;1459.20
55219;DHT22;65463;43.864;20.136;2024-02-23T14:07:35;435.30;1561.60
55219;DHT22;65463;43.864;20.136;2024-02-23T14:10:02;435.50;1433.60
55219;DHT22;65463;43.864;20.136;2024-02-23T14:12:29;435.70;1510.40
55219;DHT22;65463;43.864;20.136;2024-02-23T14:14:55;435.40;1433.60
55219;DHT22;65463;43.864;20.136;2024-02-23T14:17:21;435.40;1484.80
55219;DHT22;65463;43.864;20.136;2024-02-23T14:19:47;435.20;1484.80
55219;DHT22;65463;43.864;20.136;2024-02-23T14:22:13;435.30;1484.80
55219;DHT22;65463;43.864;20.136;2024-02-23T14:24:39;435.40;1484.80
55219;DHT22;65463;43.864;20.136;2024-02-23T17:03:51;384.80;1536.00
55219;DHT22;65463;43.864;20.136;2024-02-23T17:06:17;384.60;1561.60
55219;DHT22;65463;43.864;20.136;2024-02-23T17:08:43;384.50;1587.20
55219;DHT22;65463;43.864;20.136;2024-02-23T17:11:08;384.30;1536.00
55219;DHT22;65463;43.864;20.136;2024-02-23T17:13:35;384.30;1561.60
55219;DHT22;65463;43.864;20.136;2024-02-23T17:16:01;384.30;1536.00
55219;DHT22;65463;43.864;20.136;2024-02-23T17:18:26;384.30;1587.20
55219;DHT22;65463;43.864;20.136;2024-02-23T17:20:52;384.60;1612.80
55219;DHT22;65463;43.864;20.136;2024-02-23T17:23:18;384.40;1536.00
55219;DHT22;65463;43.864;20.136;2024-02-23T17:25:44;384.50;1561.60
55219;DHT22;65463;43.864;20.136;2024-02-23T17:28:10;384.30;1587.20
55219;DHT22;65463;43.864;20.136;2024-02-23T20:44:08;384.00;1715.20
55219;DHT22;65463;43.864;20.136;2024-02-23T20:46:34;359.20;1689.60
55219;DHT22;65463;43.864;20.136;2024-02-23T20:49:00;359.10;1664.00
55219;DHT22;65463;43.864;20.136;2024-02-23T20:51:27;384.00;1792.00
55219;DHT22;65463;43.864;20.136;2024-02-23T20:53:54;384.40;1817.60
55219;DHT22;65463;43.864;20.136;2024-02-23T20:56:19;384.00;1715.20
55219;DHT22;65463;43.864;20.136;2024-02-23T20:58:45;359.20;1740.80
55219;DHT22;65463;43.864;20.136;2024-02-23T21:01:11;359.10;1792.00
55219;DHT22;65463;43.864;20.136;2024-02-23T21:03:37;359.00;1740.80
55219;DHT22;65463;43.864;20.136;2024-02-23T21:06:04;359.10;1766.40
55219;DHT22;65463;43.864;20.136;2024-02-23T21:08:29;359.00;1766.40
55219;DHT22;65463;43.864;20.136;2024-02-23T21:10:55;359.20;1792.00
55219;DHT22;65463;43.864;20.136;2024-02-23T21:13:21;359.30;1715.20
55219;DHT22;65463;43.864;20.136;2024-02-23T21:15:47;359.30;1766.40
55219;DHT22;65463;43.864;20.136;2024-02-23T21:18:13;359.20;1792.00
55219;DHT22;65463;43.864;20.136;2024-02-23T21:20:43;359.20;1740.80
55219;DHT22;65463;43.864;20.136;2024-02-23T21:23:14;384.00;1843.20
55219;DHT22;65463;43.864;20.136;2024-02-23T21:25:40;359.30;1715.20
55219;DHT22;65463;43.864;20.136;2024-02-23T21:28:06;359.20;1740.80
55219;DHT22;65463;43.864;20.136;2024-02-23T21:30:34;359.30;1817.60
55219;DHT22;65463;43.864;20.136;2024-02-23T21:33:00;359.30;1792.00
55219;DHT22;65463;43.864;20.136;2024-02-23T21:35:25;359.20;1715.20
55219;DHT22;65463;43.864;20.136;2024-02-23T21:37:52;359.10;1740.80
55219;DHT22;65463;43.864;20.136;2024-02-23T21:40:19;359.10;1740.80
55219;DHT22;65463;43.864;20.136;2024-02-23T21:42:46;359.30;1792.00
55219;DHT22;65463;43.864;20.136;2024-02-23T21:45:12;359.10;1766.40
55219;DHT22;65463;43.864;20.136;2024-02-23T21:47:38;358.90;1868.80
55219;DHT22;65463;43.864;20.136;2024-02-23T21:50:04;359.00;1817.60
55219;DHT22;65463;43.864;20.136;2024-02-23T22:09:40;384.20;1817.60
55219;DHT22;65463;43.864;20.136;2024-02-23T22:12:08;384.20;1817.60
55219;DHT22;65463;43.864;20.136;2024-02-23T22:14:33;384.30;1792.00
55219;DHT22;65463;43.864;20.136;2024-02-23T22:16:59;384.20;1792.00
55219;DHT22;65463;43.864;20.136;2024-02-23T22:19:27;384.00;1740.80
55219;DHT22;65463;43.864;20.136;2024-02-23T22:21:53;384.20;1945.60
55219;DHT22;65463;43.864;20.136;2024-02-23T22:24:19;384.30;1740.80
55219;DHT22;65463;43.864;20.136;2024-02-23T22:26:45;384.20;1740.80
55219;DHT22;65463;43.864;20.136;2024-02-23T22:29:11;384.20;1843.20
55219;DHT22;65463;43.864;20.136;2024-02-23T22:31:44;384.30;1792.00
55219;DHT22;65463;43.864;20.136;2024-02-23T22:34:10;384.40;1766.40
55219;DHT22;65463;43.864;20.136;2024-02-23T22:36:36;384.30;1868.80
55219;DHT22;65463;43.864;20.136;2024-02-23T23:10:48;384.00;1740.80
55219;DHT22;65463;43.864;20.136;2024-02-23T23:13:14;384.00;1740.80
55219;DHT22;65463;43.864;20.136;2024-02-23T23:15:40;384.00;1740.80
55219;DHT22;65463;43.864;20.136;2024-02-23T23:18:06;359.30;1766.40
55219;DHT22;65463;43.864;20.136;2024-02-23T23:20:32;384.10;1817.60
55219;DHT22;65463;43.864;20.136;2024-02-23T23:22:57;384.00;1766.40
